createdAt,value
2022-12-25T00:04:43.138Z,38.70
2022-12-25T00:14:56.110Z,33.20
2022-12-25T00:25:09.115Z,36.20
2022-12-25T00:35:22.100Z,35.50
2022-12-25T00:45:35.162Z,33.10
2022-12-25T00:55:48.106Z,35.10
2022-12-25T01:06:09.191Z,41.00
2022-12-25T01:16:24.169Z,37.50
2022-12-25T01:26:37.201Z,47.50
2022-12-25T01:36:57.170Z,46.20
2022-12-25T01:47:16.180Z,43.40
2022-12-25T01:57:40.160Z,45.30
2022-12-25T02:07:54.206Z,43.40
2022-12-25T02:18:10.188Z,39.90
2022-12-25T02:28:34.212Z,39.60
2022-12-25T02:39:11.185Z,37.30
2022-12-25T02:49:52.211Z,34.30
2022-12-25T03:00:25.191Z,33.10
2022-12-25T03:10:57.247Z,33.10
2022-12-25T03:21:29.191Z,31.90
2022-12-25T03:31:44.214Z,34.40
2022-12-25T03:42:19.269Z,34.40
2022-12-25T03:52:57.252Z,30.40
2022-12-25T04:03:28.400Z,30.50
2022-12-25T04:14:00.276Z,33.30
2022-12-25T04:24:32.310Z,32.10
2022-12-25T04:35:03.282Z,29.30
2022-12-25T04:45:15.311Z,32.55
2022-12-25T04:55:28.290Z,30.10
2022-12-25T05:05:41.323Z,31.60
2022-12-25T05:15:54.352Z,30.70
2022-12-25T05:26:07.297Z,29.90
2022-12-25T05:36:20.299Z,32.90
2022-12-25T05:46:33.389Z,33.40
2022-12-25T05:56:46.311Z,33.40
2022-12-25T06:06:59.376Z,31.30
2022-12-25T06:17:12.362Z,31.20
2022-12-25T06:27:25.359Z,30.40
2022-12-25T06:37:39.324Z,29.50
2022-12-25T06:47:52.373Z,32.90
2022-12-25T06:58:05.378Z,30.20
2022-12-25T07:08:18.390Z,28.50
2022-12-25T07:18:31.406Z,26.10
2022-12-25T07:28:44.445Z,28.70
2022-12-25T07:38:58.400Z,28.30
2022-12-25T07:49:18.406Z,37.60
2022-12-25T07:59:31.388Z,45.10
2022-12-25T08:09:44.448Z,49.40
2022-12-25T08:19:57.475Z,47.90
2022-12-25T08:30:10.484Z,44.40
2022-12-25T08:40:23.441Z,44.20
2022-12-25T08:50:42.467Z,41.30
2022-12-25T09:00:56.509Z,45.90
2022-12-25T09:11:15.445Z,49.40
2022-12-25T09:21:28.484Z,37.80
2022-12-25T09:31:41.455Z,42.10
2022-12-25T09:42:04.491Z,37.70
2022-12-25T09:52:45.477Z,44.50
2022-12-25T10:03:16.556Z,39.60
2022-12-25T10:13:44.494Z,32.40
2022-12-25T10:24:01.515Z,27.60
2022-12-25T10:34:14.566Z,30.90
2022-12-25T10:44:31.523Z,30.80
2022-12-25T10:54:44.531Z,29.50
2022-12-25T11:04:58.540Z,33.00
2022-12-25T11:15:50.579Z,33.70
2022-12-25T11:26:15.573Z,30.00
2022-12-25T11:36:28.544Z,31.30
2022-12-25T11:46:48.617Z,26.20
2022-12-25T11:57:03.594Z,26.20
2022-12-25T12:07:45.591Z,31.80
2022-12-25T12:17:58.606Z,29.60
2022-12-25T12:28:11.584Z,25.60
2022-12-25T12:38:28.623Z,24.30
2022-12-25T12:48:50.571Z,23.40
2022-12-25T12:59:03.638Z,25.40
2022-12-25T13:09:48.597Z,23.70
2022-12-25T13:20:08.640Z,25.20
2022-12-25T13:30:22.614Z,28.80
2022-12-25T13:40:35.651Z,27.60
2022-12-25T13:51:04.673Z,26.30
2022-12-25T14:01:19.846Z,21.10
2022-12-25T14:11:34.678Z,23.20
2022-12-25T14:21:56.649Z,24.10
2022-12-25T14:32:12.693Z,34.20
2022-12-25T14:42:29.663Z,52.20
2022-12-25T14:52:56.725Z,26.20
2022-12-25T15:03:11.845Z,32.80
2022-12-25T15:13:27.743Z,68.80
2022-12-25T15:23:40.673Z,47.80
2022-12-25T15:33:53.785Z,44.00
2022-12-25T15:44:06.717Z,86.50
2022-12-25T15:54:19.748Z,87.20
2022-12-25T16:04:33.763Z,76.00
2022-12-25T16:14:46.784Z,58.20
2022-12-25T16:24:59.736Z,50.80
2022-12-25T16:35:12.779Z,58.30
2022-12-25T16:45:25.768Z,60.70
2022-12-25T16:55:38.803Z,57.30
2022-12-25T17:05:51.765Z,54.20
2022-12-25T17:16:04.864Z,42.10
2022-12-25T17:26:17.784Z,42.30
2022-12-25T17:36:30.842Z,54.40
2022-12-25T17:46:43.786Z,55.70
2022-12-25T17:56:56.856Z,54.60
2022-12-25T18:07:10.815Z,53.90
2022-12-25T18:17:22.867Z,62.40
2022-12-25T18:27:35.795Z,60.30
2022-12-25T18:37:48.868Z,55.90
2022-12-25T18:48:02.855Z,53.30
2022-12-25T18:58:15.864Z,58.20
2022-12-25T19:08:28.840Z,54.00
2022-12-25T19:18:41.904Z,49.40
2022-12-25T19:28:54.859Z,47.90
2022-12-25T19:39:08.041Z,48.50
2022-12-25T19:49:27.910Z,52.20
2022-12-25T19:59:40.891Z,48.60
2022-12-25T20:09:53.941Z,56.80
2022-12-25T20:20:06.916Z,50.90
2022-12-25T20:30:19.914Z,49.40
2022-12-25T20:40:52.978Z,50.30
2022-12-25T20:51:22.970Z,54.20
2022-12-25T21:01:38.000Z,58.30
2022-12-25T21:11:50.997Z,54.80
2022-12-25T21:22:03.961Z,55.40
2022-12-25T21:32:34.981Z,54.50
2022-12-25T21:42:47.977Z,51.70
2022-12-25T21:53:07.002Z,53.30
2022-12-25T22:03:20.065Z,56.20
2022-12-25T22:13:50.993Z,63.50
2022-12-25T22:24:03.983Z,58.30
2022-12-25T22:34:17.045Z,53.50
2022-12-25T22:44:35.013Z,60.90
2022-12-25T22:54:48.031Z,59.20
2022-12-25T23:05:00.999Z,52.40
2022-12-25T23:15:14.052Z,56.60
2022-12-25T23:25:46.011Z,53.90
2022-12-25T23:35:59.070Z,60.30
2022-12-25T23:46:12.121Z,60.80
2022-12-25T23:56:25.048Z,57.20
